Time;durP1;ratioP1;P1;durP2;ratioP2;P2;SDS_P1;SDS_P2;PMS_P1;PMS_P2;Temp;Humidity;BMP_temperature;BMP_pressure;BME280_temperature;BME280_humidity;BME280_pressure;Samples;Min_cycle;Max_cycle;Signal;HPM_P1;HPM_P2
2023/08/11 00:01:17;;;;;;;46.70;32.40;;;;;;;18.56;78.68;99642.79;106031;1256;71124;-74
2023/08/11 00:03:44;;;;;;;45.60;31.80;;;;;;;18.80;78.64;99645.27;106030;1256;61195;-73
2023/08/11 00:06:10;;;;;;;45.90;30.40;;;;;;;18.95;76.69;99647.88;106020;1252;61250;-75
2023/08/11 00:08:39;;;;;;;44.00;27.80;;;;;;;18.85;77.20;99652.85;105896;1254;74591;-73
2023/08/11 00:11:06;;;;;;;;;;;;;;;18.65;80.13;99651.35;106019;1255;68585;-75
2023/08/11 00:13:33;;;;;;;46.60;30.20;;;;;;;18.73;79.38;99649.06;106040;1253;72544;-74
2023/08/11 00:16:02;;;;;;;43.00;24.80;;;;;;;18.92;76.96;99652.20;105771;1256;61624;-74
2023/08/11 00:18:30;;;;;;;40.90;25.00;;;;;;;18.91;76.70;99653.96;105889;1253;61343;-74
2023/08/11 00:20:58;;;;;;;49.00;25.60;;;;;;;19.00;76.12;99654.17;106016;1253;74408;-74
2023/08/11 00:23:25;;;;;;;46.70;31.60;;;;;;;18.97;76.23;99648.27;105861;1254;67600;-73
2023/08/11 00:25:52;;;;;;;49.70;34.50;;;;;;;18.97;76.42;99646.86;106048;1253;72590;-75
2023/08/11 00:28:19;;;;;;;42.70;24.80;;;;;;;18.97;76.22;99649.21;106103;1256;61357;-74
2023/08/11 00:30:46;;;;;;;46.50;24.20;;;;;;;18.85;77.04;99647.63;105819;1253;61338;-75
2023/08/11 00:33:12;;;;;;;48.70;28.60;;;;;;;18.70;78.46;99641.30;105678;1254;74692;-74
2023/08/11 00:35:40;;;;;;;62.30;35.50;;;;;;;18.74;79.70;99641.92;105994;1253;68596;-75
2023/08/11 00:38:07;;;;;;;47.20;30.80;;;;;;;18.73;79.75;99635.73;105735;1260;72350;-74
2023/08/11 00:40:34;;;;;;;47.40;28.30;;;;;;;18.82;79.36;99634.35;106057;1253;62017;-75
2023/08/11 00:43:00;;;;;;;47.00;25.60;;;;;;;18.83;78.97;99627.65;105910;1253;61299;-75
2023/08/11 00:45:27;;;;;;;47.20;27.10;;;;;;;18.91;78.46;99627.20;105860;1253;74507;-75
2023/08/11 00:47:54;;;;;;;46.60;28.10;;;;;;;19.05;77.78;99624.86;105817;1258;67354;-75
2023/08/11 00:50:21;;;;;;;41.80;27.90;;;;;;;19.17;76.93;99625.81;105813;1257;72306;-75
2023/08/11 00:52:47;;;;;;;55.30;34.50;;;;;;;19.26;76.67;99624.62;105860;1254;61302;-74
2023/08/11 00:55:14;;;;;;;128.70;73.80;;;;;;;19.04;78.45;99622.59;105837;1254;61328;-75
2023/08/11 00:57:41;;;;;;;62.70;39.60;;;;;;;19.17;77.88;99619.98;105729;1259;74327;-74
2023/08/11 01:00:12;;;;;;;78.80;44.60;;;;;;;19.39;75.87;99618.66;105797;1257;68363;-76
2023/08/11 01:02:41;;;;;;;79.50;46.50;;;;;;;19.34;76.62;99617.41;106130;1254;71565;-74
2023/08/11 01:05:10;;;;;;;73.60;39.70;;;;;;;19.35;76.78;99615.05;105868;1253;61568;-74
2023/08/11 01:08:01;;;;;;;69.30;43.90;;;;;;;19.23;77.66;99615.45;106053;1252;61162;-75
2023/08/11 01:10:33;;;;;;;85.40;52.60;;;;;;;19.25;77.52;99611.59;105769;1253;74403;-74
2023/08/11 01:13:26;;;;;;;73.00;40.70;;;;;;;19.48;76.11;99610.73;105758;1253;68440;-74
2023/08/11 01:15:58;;;;;;;58.10;35.90;;;;;;;19.29;77.06;99610.81;105804;1253;72571;-75
2023/08/11 01:18:24;;;;;;;55.30;33.60;;;;;;;19.14;78.04;99610.34;105849;1253;61717;-78
2023/08/11 01:20:54;;;;;;;45.40;27.40;;;;;;;19.21;77.75;99608.52;105827;1253;61251;-74
2023/08/11 01:23:23;;;;;;;36.40;24.20;;;;;;;19.19;77.73;99607.07;105828;1254;74433;-75
2023/08/11 01:25:51;;;;;;;29.80;21.50;;;;;;;19.18;78.16;99601.21;106001;1252;68335;-74
2023/08/11 01:28:18;;;;;;;27.10;19.90;;;;;;;19.21;78.51;99602.88;106019;1256;71170;-74
2023/08/11 01:30:45;;;;;;;22.30;17.10;;;;;;;19.18;78.61;99608.56;106051;1256;61264;-75
2023/08/11 01:33:14;;;;;;;31.20;17.90;;;;;;;18.96;80.79;99606.27;106133;1255;61905;-74
2023/08/11 01:35:41;;;;;;;31.00;18.60;;;;;;;18.93;80.91;99602.08;105730;1260;75732;-75
2023/08/11 01:38:09;;;;;;;25.90;16.80;;;;;;;18.93;80.73;99598.48;105830;1251;68362;-74
2023/08/11 01:40:36;;;;;;;24.70;16.10;;;;;;;19.07;79.44;99595.15;106068;1251;72575;-77
2023/08/11 01:43:05;;;;;;;25.10;15.30;;;;;;;18.98;79.45;99592.61;105859;1256;61890;-78
2023/08/11 01:45:32;;;;;;;20.80;13.80;;;;;;;18.84;80.05;99595.54;106112;1254;61372;-73
2023/08/11 01:47:59;;;;;;;25.50;15.60;;;;;;;18.86;80.08;99592.67;106107;1251;74572;-74
2023/08/11 01:50:27;;;;;;;23.30;15.30;;;;;;;18.85;79.52;99593.34;105996;1251;68551;-74
2023/08/11 01:52:55;;;;;;;23.10;14.30;;;;;;;18.72;79.92;99590.78;106186;1251;72541;-75
2023/08/11 01:55:24;;;;;;;25.10;14.50;;;;;;;18.53;81.44;99585.55;106119;1251;61314;-74
2023/08/11 01:57:51;;;;;;;18.40;12.80;;;;;;;18.46;81.81;99582.61;105864;1253;61321;-74
2023/08/11 02:00:25;;;;;;;23.60;14.40;;;;;;;18.28;83.69;99585.16;106085;1251;73237;-74
2023/08/11 02:02:52;;;;;;;19.40;14.70;;;;;;;18.42;83.40;99585.29;105850;1251;68344;-74
2023/08/11 02:05:19;;;;;;;24.00;14.70;;;;;;;18.43;83.41;99583.45;105830;1253;71207;-76
2023/08/11 02:07:46;;;;;;;25.40;15.90;;;;;;;18.61;82.35;99578.42;105878;1253;61368;-75
2023/08/11 02:10:13;;;;;;;22.00;13.30;;;;;;;18.51;83.04;99580.92;106073;1251;61202;-75
2023/08/11 02:12:40;;;;;;;23.40;14.30;;;;;;;18.40;83.37;99579.67;106106;1256;74622;-75
2023/08/11 02:15:07;;;;;;;51.10;28.80;;;;;;;18.44;84.35;99581.98;106091;1256;67422;-75
2023/08/11 02:17:34;;;;;;;31.20;19.60;;;;;;;18.26;86.42;99578.73;106086;1256;72285;-74
2023/08/11 02:20:12;;;;;;;23.90;14.10;;;;;;;18.19;86.50;99579.04;106110;1251;61867;-75
2023/08/11 02:22:39;;;;;;;168.40;23.40;;;;;;;18.48;83.82;99584.73;105928;1251;61267;-74
2023/08/11 02:25:07;;;;;;;31.00;21.30;;;;;;;18.40;84.70;99583.83;106099;1256;74444;-75
2023/08/11 02:27:33;;;;;;;37.50;25.40;;;;;;;18.32;84.93;99584.17;106176;1251;68389;-76
2023/08/11 02:30:01;;;;;;;59.70;19.00;;;;;;;18.44;83.44;99578.47;105810;1253;73053;-75
2023/08/11 02:32:28;;;;;;;64.30;18.80;;;;;;;18.40;83.44;99581.85;106098;1251;61848;-74
2023/08/11 02:34:56;;;;;;;40.80;22.00;;;;;;;18.43;83.53;99581.91;105880;1257;61332;-74
2023/08/11 02:37:22;;;;;;;51.20;22.50;;;;;;;18.72;82.25;99586.59;105829;1260;74593;-75
2023/08/11 02:39:50;;;;;;;33.40;23.10;;;;;;;18.84;80.21;99581.55;106103;1251;68574;-74
2023/08/11 02:42:17;;;;;;;25.30;19.40;;;;;;;18.59;83.93;99578.95;106553;1253;72516;-75
2023/08/11 02:44:44;;;;;;;19.30;15.60;;;;;;;18.54;84.98;99577.20;106569;1251;61650;-75
2023/08/11 02:47:11;;;;;;;22.50;16.30;;;;;;;18.60;84.81;99573.75;106171;1255;62048;-75
2023/08/11 02:49:37;;;;;;;17.80;12.20;;;;;;;18.68;84.15;99574.89;106105;1256;74504;-74
2023/08/11 02:52:04;;;;;;;22.50;14.50;;;;;;;18.52;84.87;99575.41;106136;1251;68419;-75
2023/08/11 02:54:31;;;;;;;15.60;9.70;;;;;;;18.43;85.77;99573.75;105850;1256;72372;-75
2023/08/11 02:56:58;;;;;;;17.10;11.20;;;;;;;18.47;85.94;99572.31;106106;1251;61736;-75
2023/08/11 02:59:25;;;;;;;15.20;12.30;;;;;;;18.53;85.43;99573.87;106098;1251;61254;-74
2023/08/11 03:01:52;;;;;;;16.10;11.80;;;;;;;18.56;84.96;99568.41;105898;1253;74322;-74
2023/08/11 03:04:19;;;;;;;15.60;10.80;;;;;;;18.62;85.07;99566.60;105963;1251;148863;-74
2023/08/11 03:06:47;;;;;;;11.40;9.20;;;;;;;18.82;83.64;99566.76;105866;1257;72578;-75
2023/08/11 03:09:14;;;;;;;;;;;;;;;18.78;83.67;99563.77;105853;1253;61676;-76
2023/08/11 03:11:41;;;;;;;22.50;9.00;;;;;;;19.01;81.76;99564.89;106091;1253;61327;-76
2023/08/11 03:14:08;;;;;;;12.60;8.70;;;;;;;18.99;81.68;99566.80;105873;1257;73414;-75
2023/08/11 03:16:35;;;;;;;8.60;7.70;;;;;;;18.91;82.74;99565.23;106091;1251;68676;-76
2023/08/11 03:19:02;;;;;;;12.00;9.10;;;;;;;18.83;82.98;99563.58;106156;1251;72353;-75
2023/08/11 03:21:29;;;;;;;12.80;9.50;;;;;;;19.13;81.20;99560.42;105792;1251;61755;-77
2023/08/11 03:24:01;;;;;;;20.20;11.70;;;;;;;19.40;78.95;99560.48;106195;1251;61308;-75
2023/08/11 03:26:28;;;;;;;22.50;11.60;;;;;;;19.48;78.18;99560.89;105952;1251;74522;-76
2023/08/11 03:28:55;;;;;;;20.50;11.70;;;;;;;19.35;79.46;99559.30;106042;1256;67108;-76
2023/08/11 03:31:22;;;;;;;42.80;20.40;;;;;;;19.57;77.91;99557.10;105874;1254;72427;-75
2023/08/11 03:33:50;;;;;;;62.20;29.20;;;;;;;19.85;75.38;99557.66;106123;1251;61920;-76
2023/08/11 03:36:17;;;;;;;73.40;32.60;;;;;;;19.84;75.42;99556.31;105846;1251;61277;-76
2023/08/11 03:38:44;;;;;;;80.70;37.60;;;;;;;19.87;75.26;99557.00;106108;1253;73041;-75
2023/08/11 03:41:11;;;;;;;66.20;37.30;;;;;;;19.92;74.92;99556.31;106051;1251;68406;-75
2023/08/11 03:43:37;;;;;;;74.20;38.40;;;;;;;20.07;74.34;99555.92;105815;1253;72577;-76
2023/08/11 03:46:04;;;;;;;67.50;36.60;;;;;;;20.53;71.73;99563.11;105832;1257;61340;-75
2023/08/11 03:48:33;;;;;;;36.40;21.30;;;;;;;20.82;68.62;99560.40;106070;1254;61264;-75
2023/08/11 03:51:01;;;;;;;21.30;13.60;;;;;;;21.11;67.01;99553.55;106120;1256;73679;-76
2023/08/11 03:53:30;;;;;;;20.50;11.80;;;;;;;21.19;66.94;99553.67;106224;1251;68703;-75
2023/08/11 03:55:57;;;;;;;17.60;8.90;;;;;;;21.31;65.68;99553.70;106154;1251;71482;-75
2023/08/11 03:58:25;;;;;;;12.50;8.00;;;;;;;21.59;63.96;99553.17;106299;1256;61934;-75
2023/08/11 04:00:53;;;;;;;10.60;6.80;;;;;;;22.18;61.82;99550.07;106208;1256;61678;-75
2023/08/11 04:03:22;;;;;;;21.40;8.60;;;;;;;22.21;60.78;99552.45;106269;1251;73372;-76
2023/08/11 04:05:50;;;;;;;23.40;12.40;;;;;;;22.24;61.88;99550.99;106344;1251;68588;-75
2023/08/11 04:08:17;;;;;;;45.70;35.30;;;;;;;22.85;59.22;99554.69;106246;1252;72568;-76
2023/08/11 04:10:44;;;;;;;77.30;15.90;;;;;;;23.15;58.26;99556.43;105857;1253;61808;-74
2023/08/11 04:13:11;;;;;;;15.30;8.70;;;;;;;23.43;57.48;99562.09;105842;1252;61304;-75
2023/08/11 04:15:39;;;;;;;12.90;7.20;;;;;;;24.05;53.91;99564.67;105808;1253;74392;-75
2023/08/11 04:18:05;;;;;;;18.50;6.70;;;;;;;24.06;52.59;99564.39;105873;1253;68387;-76
2023/08/11 04:20:33;;;;;;;31.90;10.90;;;;;;;24.25;52.07;99566.62;105949;1257;72696;-77
2023/08/11 04:23:02;;;;;;;32.90;9.20;;;;;;;24.43;52.11;99569.77;107284;1251;59898;-75
2023/08/11 04:25:31;;;;;;;17.50;7.60;;;;;;;24.84;50.90;99572.22;107686;1253;61345;-75
2023/08/11 04:27:59;;;;;;;27.90;7.40;;;;;;;25.11;50.12;99579.34;107560;1253;73473;-75
2023/08/11 04:30:26;;;;;;;19.90;6.80;;;;;;;25.51;48.40;99582.21;107195;1251;68415;-79
2023/08/11 04:32:53;;;;;;;17.50;5.10;;;;;;;25.63;47.21;99580.31;106277;1251;72532;-75
2023/08/11 04:35:20;;;;;;;13.30;5.80;;;;;;;25.78;46.79;99583.30;106056;1253;61340;-77
2023/08/11 04:37:49;;;;;;;14.00;5.30;;;;;;;25.76;45.82;99585.59;106215;1251;61263;-80
2023/08/11 04:40:17;;;;;;;17.80;5.60;;;;;;;25.72;45.83;99588.95;106064;1251;73179;-78
2023/08/11 04:42:47;;;;;;;12.20;5.70;;;;;;;26.16;44.88;99588.45;105858;1257;67332;-78
2023/08/11 04:45:18;;;;;;;13.40;8.40;;;;;;;26.10;44.70;99586.45;106063;1254;72903;-75
2023/08/11 04:47:44;;;;;;;10.80;8.70;;;;;;;26.15;45.01;99590.18;106048;1253;61340;-75
2023/08/11 04:50:14;;;;;;;30.80;18.00;;;;;;;26.37;44.49;99589.64;106075;1256;61215;-76
2023/08/11 04:52:41;;;;;;;12.90;7.90;;;;;;;26.44;44.40;99595.38;106169;1251;74914;-77
2023/08/11 04:55:12;;;;;;;13.80;8.50;;;;;;;26.29;44.27;99596.05;106149;1251;68296;-75
2023/08/11 04:57:39;;;;;;;14.10;6.50;;;;;;;26.45;44.29;99600.91;105975;1253;72698;-75
2023/08/11 05:00:13;;;;;;;9.90;6.60;;;;;;;26.89;43.58;99602.98;106005;1258;61229;-75
2023/08/11 05:02:41;;;;;;;10.90;6.10;;;;;;;27.29;42.99;99600.85;106144;1252;61352;-77
2023/08/11 05:05:09;;;;;;;8.20;5.90;;;;;;;27.53;42.37;99609.88;106022;1259;74340;-76
2023/08/11 05:07:37;;;;;;;9.70;5.70;;;;;;;27.71;41.64;99617.13;106084;1253;68320;-77
2023/08/11 05:10:04;;;;;;;;;;;;;;;27.99;41.33;99621.80;106110;1253;71494;-75
2023/08/11 05:12:31;;;;;;;8.20;4.30;;;;;;;28.43;40.49;99625.02;106047;1253;61246;-77
2023/08/11 05:14:57;;;;;;;7.50;4.60;;;;;;;28.55;39.68;99626.45;105732;1253;61221;-73
2023/08/11 05:17:24;;;;;;;9.70;4.30;;;;;;;28.74;39.40;99627.34;105893;1253;74960;-72
2023/08/11 05:19:51;;;;;;;5.00;3.90;;;;;;;28.72;39.34;99622.02;106003;1253;68493;-73
2023/08/11 05:22:18;;;;;;;6.00;4.40;;;;;;;28.86;38.95;99628.45;105627;1254;72281;-73
2023/08/11 05:24:44;;;;;;;8.00;4.30;;;;;;;28.87;38.34;99628.30;105706;1253;61253;-72
2023/08/11 05:27:11;;;;;;;8.60;3.70;;;;;;;28.73;38.40;99627.89;105933;1253;61350;-71
2023/08/11 05:29:38;;;;;;;12.90;3.80;;;;;;;28.79;38.68;99626.61;105977;1256;75206;-72
2023/08/11 05:32:05;;;;;;;11.20;4.10;;;;;;;29.63;37.48;99630.91;105926;1251;68867;-70
2023/08/11 05:34:32;;;;;;;22.00;4.90;;;;;;;29.81;37.01;99631.79;105904;1251;73163;-72
2023/08/11 05:36:59;;;;;;;10.20;3.80;;;;;;;30.36;35.98;99633.84;105943;1255;61346;-71
2023/08/11 05:39:26;;;;;;;11.20;3.60;;;;;;;30.45;35.53;99633.42;105996;1251;61346;-71
2023/08/11 05:41:53;;;;;;;10.00;3.30;;;;;;;30.29;35.19;99632.91;105734;1257;75590;-70
2023/08/11 05:44:20;;;;;;;5.20;3.10;;;;;;;30.30;35.13;99633.08;105757;1251;69619;-73
2023/08/11 05:46:47;;;;;;;15.50;4.10;;;;;;;30.37;34.95;99634.33;105893;1251;71044;-69
2023/08/11 05:49:13;;;;;;;12.10;3.70;;;;;;;31.03;34.34;99631.02;105968;1251;61231;-77
2023/08/11 05:51:40;;;;;;;15.00;3.80;;;;;;;30.77;34.30;99630.52;105970;1251;61102;-73
2023/08/11 05:54:07;;;;;;;14.90;3.90;;;;;;;30.47;34.75;99628.30;105945;1256;75430;-70
2023/08/11 05:56:34;;;;;;;6.90;3.40;;;;;;;30.34;34.76;99627.40;105983;1253;69116;-69
2023/08/11 05:59:01;;;;;;;7.10;2.70;;;;;;;30.30;34.65;99631.50;105903;1256;73124;-70
2023/08/11 06:01:30;;;;;;;5.60;3.00;;;;;;;30.20;34.64;99630.87;105656;1253;61311;-69
2023/08/11 06:03:56;;;;;;;36.90;4.50;;;;;;;30.53;34.23;99629.98;105883;1253;61215;-71
2023/08/11 06:06:23;;;;;;;9.40;3.10;;;;;;;31.16;33.72;99627.30;105957;1256;74951;-70
2023/08/11 06:08:50;;;;;;;36.60;5.30;;;;;;;31.34;33.39;99629.09;105902;1253;69354;-78
2023/08/11 06:11:17;;;;;;;6.80;3.00;;;;;;;31.47;33.81;99632.44;105908;1256;73239;-71
2023/08/11 06:13:44;;;;;;;6.50;3.00;;;;;;;31.44;32.83;99633.96;105880;1252;61255;-71
2023/08/11 06:16:12;;;;;;;14.40;2.90;;;;;;;31.33;32.51;99634.71;105892;1253;61405;-71
2023/08/11 06:18:39;;;;;;;13.50;3.60;;;;;;;31.40;32.66;99635.52;105975;1253;73383;-71
2023/08/11 06:21:06;;;;;;;16.90;3.60;;;;;;;31.65;32.20;99634.95;105894;1254;68971;-69
2023/08/11 06:23:33;;;;;;;15.60;3.30;;;;;;;31.76;32.21;99632.66;105994;1254;73105;-71
2023/08/11 06:26:00;;;;;;;4.90;2.60;;;;;;;31.85;31.89;99630.36;105898;1253;61816;-69
2023/08/11 06:28:26;;;;;;;10.60;2.60;;;;;;;32.13;31.47;99626.58;106008;1252;61334;-70
2023/08/11 06:30:53;;;;;;;9.00;3.60;;;;;;;32.17;31.50;99626.02;105906;1251;66018;-74
2023/08/11 06:33:23;;;;;;;6.70;3.50;;;;;;;32.10;31.49;99618.55;105733;1252;61289;-70
2023/08/11 06:35:50;;;;;;;7.30;3.40;;;;;;;31.58;31.17;99616.30;105896;1256;73176;-68
2023/08/11 06:38:35;;;;;;;11.80;3.20;;;;;;;31.82;31.55;99618.95;105892;1251;61247;-70
2023/08/11 06:41:03;;;;;;;7.10;2.90;;;;;;;32.20;30.80;99622.05;106010;1253;61423;-68
2023/08/11 06:43:30;;;;;;;11.30;3.50;;;;;;;32.10;31.04;99616.50;105953;1256;74766;-70
2023/08/11 06:45:57;;;;;;;10.90;3.00;;;;;;;32.32;30.46;99617.73;105926;1251;61249;-70
2023/08/11 06:48:27;;;;;;;9.50;3.10;;;;;;;32.16;30.63;99611.39;105973;1253;63944;-70
2023/08/11 06:50:56;;;;;;;13.40;3.80;;;;;;;31.63;31.02;99609.41;105939;1253;61142;-69
2023/08/11 06:53:23;;;;;;;7.00;3.20;;;;;;;31.88;31.05;99608.57;105929;1255;61436;-71
2023/08/11 06:55:51;;;;;;;10.70;3.40;;;;;;;31.84;30.94;99609.03;105863;1256;74940;-70
2023/08/11 06:58:17;;;;;;;14.30;3.30;;;;;;;31.89;30.82;99611.10;105923;1256;69284;-71
2023/08/11 07:00:44;;;;;;;10.00;3.00;;;;;;;31.77;30.94;99608.95;105973;1253;63791;-68
2023/08/11 07:03:11;;;;;;;11.70;3.50;;;;;;;32.14;31.21;99611.26;105728;1253;61250;-70
2023/08/11 07:05:38;;;;;;;6.20;3.10;;;;;;;32.36;30.87;99613.77;105932;1253;61221;-68
2023/08/11 07:08:05;;;;;;;14.90;3.50;;;;;;;31.68;31.42;99610.14;105982;1255;74930;-67
2023/08/11 07:10:33;;;;;;;8.40;3.50;;;;;;;31.20;32.19;99609.08;105970;1253;69162;-68
2023/08/11 07:12:59;;;;;;;11.00;6.70;;;;;;;31.17;32.44;99604.48;106043;1256;72886;-71
2023/08/11 07:15:26;;;;;;;10.60;4.60;;;;;;;31.47;31.84;99605.11;105888;1251;62303;-70
2023/08/11 07:17:54;;;;;;;11.20;4.90;;;;;;;31.71;31.70;99604.83;105946;1251;61199;-76
2023/08/11 07:20:21;;;;;;;4.80;2.80;;;;;;;31.97;31.62;99605.33;106005;1256;74818;-68
2023/08/11 07:22:47;;;;;;;7.80;3.00;;;;;;;32.01;31.24;99606.80;105908;1253;68017;-68
2023/08/11 07:25:14;;;;;;;6.70;3.10;;;;;;;32.53;30.53;99607.55;105977;1256;63731;-70
2023/08/11 07:27:41;;;;;;;6.90;2.80;;;;;;;32.21;30.36;99603.40;105934;1253;61227;-70
2023/08/11 07:30:09;;;;;;;5.90;2.80;;;;;;;32.01;30.75;99605.80;105972;1256;61207;-71
2023/08/11 07:32:36;;;;;;;5.20;3.00;;;;;;;31.69;31.43;99603.48;105939;1256;74599;-70
2023/08/11 07:35:05;;;;;;;5.90;3.20;;;;;;;32.10;30.84;99606.89;105936;1255;69112;-69
2023/08/11 07:37:31;;;;;;;5.80;3.40;;;;;;;31.72;31.05;99607.11;105981;1253;72688;-70
2023/08/11 07:39:58;;;;;;;8.40;3.00;;;;;;;30.58;32.77;99601.92;105926;1252;61275;-70
2023/08/11 07:42:25;;;;;;;5.90;3.00;;;;;;;30.94;32.62;99601.70;105943;1251;61241;-73
2023/08/11 07:44:55;;;;;;;10.00;3.10;;;;;;;31.18;32.06;99591.65;105948;1256;74967;-71
2023/08/11 07:47:22;;;;;;;7.10;2.30;;;;;;;31.17;32.22;99597.19;105902;1252;69122;-70
2023/08/11 07:49:48;;;;;;;4.60;3.00;;;;;;;31.93;31.46;99599.46;105728;1258;72988;-70
2023/08/11 07:52:15;;;;;;;6.90;3.30;;;;;;;32.20;30.59;99598.25;105879;1253;61324;-69
2023/08/11 07:54:42;;;;;;;7.00;3.20;;;;;;;32.34;30.42;99596.70;105877;1253;61225;-70
2023/08/11 07:57:10;;;;;;;6.60;3.60;;;;;;;32.80;30.07;99601.27;105569;1259;74929;-69
2023/08/11 07:59:37;;;;;;;17.20;3.90;;;;;;;33.29;29.66;99603.66;105894;1253;61350;-70
2023/08/11 08:02:04;;;;;;;35.20;4.20;;;;;;;33.48;29.72;99603.39;105874;1253;63616;-73
2023/08/11 08:04:33;;;;;;;6.30;3.50;;;;;;;33.88;29.09;99606.29;105626;1253;61408;-70
2023/08/11 08:06:59;;;;;;;6.50;3.20;;;;;;;33.97;28.74;99605.98;105932;1253;61264;-69
2023/08/11 08:09:26;;;;;;;5.20;2.60;;;;;;;33.90;28.72;99605.95;105923;1256;66048;-70
2023/08/11 08:11:53;;;;;;;7.30;2.90;;;;;;;33.43;29.01;99603.03;105920;1253;61300;-72
2023/08/11 08:14:20;;;;;;;6.40;2.70;;;;;;;32.92;29.70;99598.52;105702;1260;63815;-69
2023/08/11 08:16:47;;;;;;;7.90;2.90;;;;;;;32.56;30.27;99601.83;105884;1253;62383;-69
2023/08/11 08:19:14;;;;;;;5.50;2.60;;;;;;;32.40;30.24;99596.54;105890;1253;61238;-71
2023/08/11 08:21:41;;;;;;;9.70;2.60;;;;;;;32.65;30.09;99598.71;105964;1254;65905;-73
2023/08/11 08:24:08;;;;;;;7.20;2.40;;;;;;;33.19;29.69;99602.13;105890;1253;61362;-70
2023/08/11 08:26:36;;;;;;;17.10;3.10;;;;;;;33.54;29.07;99608.45;105912;1253;63687;-70
2023/08/11 08:29:03;;;;;;;8.00;2.70;;;;;;;33.01;29.35;99606.11;105901;1251;61319;-70
2023/08/11 08:31:30;;;;;;;8.40;2.50;;;;;;;32.64;29.84;99610.95;105974;1253;61775;-71
2023/08/11 08:33:57;;;;;;;2.80;2.30;;;;;;;32.56;29.96;99616.36;105877;1255;65935;-69
2023/08/11 08:36:24;;;;;;;8.10;3.30;;;;;;;32.77;30.15;99617.57;105864;1253;61307;-69
2023/08/11 08:38:51;;;;;;;7.40;2.80;;;;;;;32.48;30.81;99616.77;105906;1253;63943;-71
2023/08/11 08:41:19;;;;;;;7.20;2.50;;;;;;;31.96;31.04;99621.34;105537;1253;61519;-72
2023/08/11 08:43:47;;;;;;;9.20;3.20;;;;;;;32.09;31.16;99620.88;105925;1253;61283;-72
2023/08/11 08:46:14;;;;;;;5.50;2.70;;;;;;;31.99;31.33;99621.09;105949;1253;73281;-69
2023/08/11 08:49:40;;;;;;;5.40;2.40;;;;;;;32.93;30.46;99625.52;105638;1253;69116;-70
2023/08/11 08:52:07;;;;;;;7.60;3.30;;;;;;;33.52;29.21;99619.90;105139;1262;63937;-70
2023/08/11 08:54:34;;;;;;;8.80;3.10;;;;;;;33.47;28.66;99615.95;105185;1262;61217;-69
2023/08/11 08:57:01;;;;;;;6.80;2.80;;;;;;;33.47;29.07;99619.15;105211;1260;61810;-70
2023/08/11 08:59:28;;;;;;;19.70;3.70;;;;;;;33.80;28.90;99622.51;105183;1264;65916;-76
2023/08/11 09:01:56;;;;;;;13.70;5.70;;;;;;;33.55;28.80;99622.13;105185;1262;61399;-69
2023/08/11 09:04:23;;;;;;;6.20;3.50;;;;;;;33.09;29.49;99612.42;105217;1262;63877;-70
2023/08/11 09:06:51;;;;;;;5.50;3.30;;;;;;;33.07;29.62;99608.16;105172;1264;61477;-70
2023/08/11 09:09:18;;;;;;;5.20;3.00;;;;;;;33.34;29.25;99611.77;105313;1262;61345;-70
2023/08/11 09:11:45;;;;;;;7.00;2.70;;;;;;;33.53;29.84;99612.17;105251;1262;75281;-70
2023/08/11 09:14:13;;;;;;;10.30;3.00;;;;;;;34.26;28.85;99614.23;105233;1262;62332;-69
2023/08/11 09:16:40;;;;;;;3.30;2.30;;;;;;;34.84;28.10;99622.94;105186;1262;63815;-69
2023/08/11 09:19:10;;;;;;;4.40;3.30;;;;;;;34.41;28.11;99620.76;105213;1262;61428;-71
2023/08/11 09:21:37;;;;;;;4.60;2.70;;;;;;;33.80;28.45;99613.52;105247;1264;61389;-72
2023/08/11 09:24:08;;;;;;;6.40;3.10;;;;;;;33.94;28.46;99611.98;105262;1264;66184;-69
2023/08/11 09:26:35;;;;;;;5.90;2.90;;;;;;;34.10;28.81;99615.42;105304;1262;61249;-70
2023/08/11 09:29:02;;;;;;;6.80;2.90;;;;;;;34.62;28.33;99615.85;105708;1253;63606;-70
2023/08/11 09:31:29;;;;;;;18.00;3.20;;;;;;;34.54;27.79;99614.43;105737;1253;61239;-72
2023/08/11 09:33:56;;;;;;;6.50;2.10;;;;;;;34.42;27.93;99616.15;105908;1253;61208;-71
2023/08/11 09:36:23;;;;;;;6.60;2.30;;;;;;;34.34;27.77;99620.20;105875;1254;65686;-70
2023/08/11 09:38:50;;;;;;;3.80;2.70;;;;;;;34.36;27.91;99621.61;105879;1253;61261;-70
2023/08/11 09:41:17;;;;;;;2.70;2.20;;;;;;;34.40;28.25;99618.88;105884;1253;73000;-72
2023/08/11 09:43:48;;;;;;;4.80;2.70;;;;;;;34.22;28.24;99615.39;105862;1253;61260;-74
2023/08/11 09:46:15;;;;;;;4.90;3.80;;;;;;;33.96;28.86;99615.84;105971;1253;61224;-68
2023/08/11 09:48:54;;;;;;;4.80;2.80;;;;;;;33.80;28.93;99614.48;105865;1256;65998;-70
2023/08/11 09:51:21;;;;;;;5.50;2.30;;;;;;;34.21;28.90;99614.83;105937;1253;61436;-69
2023/08/11 09:53:48;;;;;;;4.30;2.30;;;;;;;34.79;27.64;99608.98;105951;1253;63926;-70
2023/08/11 09:56:15;;;;;;;3.90;2.30;;;;;;;34.96;27.53;99605.89;105558;1253;61234;-69
2023/08/11 09:58:42;;;;;;;9.40;2.70;;;;;;;34.45;28.10;99604.64;105803;1259;61247;-70
2023/08/11 10:01:09;;;;;;;7.70;2.40;;;;;;;34.13;28.21;99598.45;105865;1257;65959;-69
2023/08/11 10:03:47;;;;;;;3.40;2.20;;;;;;;33.73;28.46;99594.87;105603;1253;61292;-71
2023/08/11 10:06:19;;;;;;;5.20;2.40;;;;;;;33.01;29.10;99592.05;105893;1254;63736;-68
2023/08/11 10:08:47;;;;;;;3.20;2.50;;;;;;;33.22;29.16;99586.39;105948;1253;62361;-70
2023/08/11 10:11:14;;;;;;;12.00;2.80;;;;;;;33.07;29.50;99578.61;105968;1251;61224;-73
2023/08/11 10:13:41;;;;;;;;;;;;;;;33.52;29.31;99575.08;106048;1255;66652;-71
2023/08/11 10:16:08;;;;;;;4.50;2.10;;;;;;;33.41;29.63;99578.73;105927;1253;61277;-69
2023/08/11 10:18:35;;;;;;;4.90;2.20;;;;;;;33.33;29.75;99577.19;105953;1253;63942;-71
2023/08/11 10:21:03;;;;;;;8.10;2.70;;;;;;;33.62;29.53;99572.63;105938;1254;61235;-68
2023/08/11 10:23:30;;;;;;;;;;;;;;;33.68;29.71;99569.40;105963;1253;61333;-69
2023/08/11 10:25:57;;;;;;;5.70;2.90;;;;;;;34.04;29.09;99566.05;105968;1255;65760;-70
2023/08/11 10:28:24;;;;;;;11.00;2.90;;;;;;;34.50;28.57;99569.41;105826;1253;62303;-69
2023/08/11 10:30:58;;;;;;;9.00;2.90;;;;;;;34.42;28.44;99571.89;105945;1256;63836;-69
2023/08/11 10:33:29;;;;;;;11.50;3.60;;;;;;;34.04;28.39;99570.98;105971;1251;61681;-68
2023/08/11 10:35:57;;;;;;;6.50;2.90;;;;;;;33.52;28.89;99568.95;105723;1254;61349;-73
2023/08/11 10:38:33;;;;;;;7.10;2.70;;;;;;;33.51;28.82;99564.83;105922;1256;65907;-66
2023/08/11 10:41:01;;;;;;;6.10;2.50;;;;;;;33.66;28.86;99563.77;105965;1254;61265;-67
2023/08/11 10:43:32;;;;;;;4.40;2.90;;;;;;;33.52;29.18;99561.71;105943;1251;64048;-67
2023/08/11 10:46:19;;;;;;;6.50;3.20;;;;;;;33.51;29.39;99555.52;105975;1253;61421;-69
2023/08/11 10:48:46;;;;;;;6.50;3.00;;;;;;;33.26;29.91;99560.14;105888;1251;61346;-67
2023/08/11 10:51:32;;;;;;;3.50;2.60;;;;;;;33.12;29.63;99559.43;105781;1259;65589;-66
2023/08/11 10:54:11;;;;;;;4.90;2.70;;;;;;;33.00;29.58;99561.64;105924;1253;61217;-68
2023/08/11 10:56:42;;;;;;;27.90;4.10;;;;;;;33.03;29.79;99563.20;105615;1253;63940;-70
2023/08/11 10:59:15;;;;;;;8.30;3.10;;;;;;;33.06;29.45;99563.35;105964;1254;61430;-69
2023/08/11 11:01:47;;;;;;;6.00;2.70;;;;;;;32.88;29.24;99558.84;105929;1254;61344;-69
2023/08/11 11:04:15;;;;;;;12.90;9.20;;;;;;;33.42;29.14;99554.29;105910;1255;65746;-65
2023/08/11 11:06:46;;;;;;;12.40;10.10;;;;;;;33.60;28.74;99550.52;106025;1255;62374;-68
2023/08/11 11:09:13;;;;;;;9.80;6.60;;;;;;;34.11;28.74;99551.98;105982;1253;64045;-70
2023/08/11 11:11:40;;;;;;;7.10;3.70;;;;;;;34.63;28.21;99554.77;105959;1254;62358;-67
2023/08/11 11:14:08;;;;;;;4.50;3.20;;;;;;;34.89;27.48;99560.27;105801;1253;61256;-69
2023/08/11 11:16:35;;;;;;;4.60;3.10;;;;;;;34.58;27.16;99559.85;105939;1253;65863;-71
2023/08/11 11:19:03;;;;;;;21.70;19.80;;;;;;;34.48;27.83;99553.83;105994;1254;61352;-70
2023/08/11 11:21:30;;;;;;;8.00;4.80;;;;;;;34.54;27.77;99545.81;105658;1252;63798;-73
2023/08/11 11:23:56;;;;;;;12.70;8.90;;;;;;;34.29;27.83;99547.49;105797;1251;61384;-73